Time;durP1;ratioP1;P1;durP2;ratioP2;P2;SDS_P1;SDS_P2;PMS_P1;PMS_P2;Temp;Humidity;BMP_temperature;BMP_pressure;BME280_temperature;BME280_humidity;BME280_pressure;Samples;Min_cycle;Max_cycle;Signal;HPM_P1;HPM_P2
2021/06/22 00:08:26;;;;;;;11.5;6.7;;;;;;;19.85;100;97789.1;;;;
2021/06/22 00:18:26;;;;;;;7.8;5.6;;;;;;;19.9;100;97799.64;;;;
2021/06/22 00:28:26;;;;;;;8.3;5.5;;;;;;;19.82;100;97789.09;;;;
2021/06/22 00:38:26;;;;;;;8.8;5.6;;;;;;;19.72;100;97779.67;;;;
2021/06/22 00:48:25;;;;;;;10.8;6.7;;;;;;;19.47;100;97773.37;;;;
2021/06/22 00:58:25;;;;;;;7.9;5.1;;;;;;;19.33;100;97792.41;;;;
2021/06/22 01:08:25;;;;;;;7.9;5.9;;;;;;;19.1;100;97790.73;;;;
2021/06/22 01:18:24;;;;;;;10.3;6.6;;;;;;;19.11;100;97764.2;;;;
2021/06/22 01:28:24;;;;;;;8.9;5.7;;;;;;;18.99;100;97768.04;;;;
2021/06/22 01:38:23;;;;;;;7.9;5.6;;;;;;;18.81;100;97756.23;;;;
2021/06/22 01:48:23;;;;;;;8.6;6;;;;;;;18.71;100;97756.95;;;;
2021/06/22 01:58:23;;;;;;;8.8;6.2;;;;;;;18.7;100;97754.62;;;;
2021/06/22 02:08:22;;;;;;;11.9;6.4;;;;;;;18.6;100;97767.05;;;;
2021/06/22 02:18:22;;;;;;;9.5;6.9;;;;;;;18.58;100;97783;;;;
2021/06/22 02:28:22;;;;;;;9;6.5;;;;;;;18.59;100;97782.63;;;;
2021/06/22 02:38:21;;;;;;;7.7;6;;;;;;;18.45;100;97801.59;;;;
2021/06/22 02:48:21;;;;;;;11;6.4;;;;;;;18.59;100;97812.65;;;;
2021/06/22 02:58:20;;;;;;;11.6;7;;;;;;;18.74;100;97812.75;;;;
2021/06/22 03:08:20;;;;;;;10.3;6.7;;;;;;;18.8;100;97833.86;;;;
2021/06/22 03:18:19;;;;;;;9.1;5.6;;;;;;;18.97;100;97832.41;;;;
2021/06/22 03:28:19;;;;;;;8.7;5.8;;;;;;;19.2;100;97834.87;;;;
2021/06/22 03:38:19;;;;;;;17.5;8.7;;;;;;;19.62;100;97845.25;;;;
2021/06/22 03:48:18;;;;;;;9.7;5.9;;;;;;;19.85;100;97860.2;;;;
2021/06/22 03:58:18;;;;;;;13.1;8.7;;;;;;;20.12;100;97848.92;;;;
2021/06/22 04:08:18;;;;;;;12.8;8.5;;;;;;;20.44;100;97863.48;;;;
2021/06/22 04:18:18;;;;;;;13.1;10.3;;;;;;;20.64;100;97861.92;;;;
2021/06/22 04:28:18;;;;;;;14.1;9.5;;;;;;;20.96;100;97854.45;;;;
2021/06/22 04:38:18;;;;;;;14.9;7.8;;;;;;;21.55;100;97854.75;;;;
2021/06/22 04:48:18;;;;;;;12;8.3;;;;;;;21.93;100;97859.32;;;;
2021/06/22 04:58:18;;;;;;;11;6.9;;;;;;;22.2;100;97867.79;;;;
2021/06/22 05:08:18;;;;;;;15.8;9.4;;;;;;;22.62;100;97874.95;;;;
2021/06/22 05:18:19;;;;;;;12.3;9.4;;;;;;;22.84;100;97883.85;;;;
2021/06/22 05:28:19;;;;;;;13.2;8.3;;;;;;;23.31;100;97896.76;;;;
2021/06/22 05:38:20;;;;;;;22.8;8.9;;;;;;;23.36;100;97884.54;;;;
2021/06/22 05:48:20;;;;;;;8.7;6.5;;;;;;;23.7;100;97899.13;;;;
2021/06/22 05:58:20;;;;;;;14.7;7.5;;;;;;;24.34;100;97906.58;;;;
2021/06/22 06:08:20;;;;;;;9.6;7.4;;;;;;;24.46;100;97886.73;;;;
2021/06/22 06:18:21;;;;;;;9.6;7.8;;;;;;;24.75;100;97887.84;;;;
2021/06/22 06:28:25;;;;;;;11.9;7.7;;;;;;;25.21;100;97883.56;;;;
2021/06/22 06:38:22;;;;;;;11.6;7.9;;;;;;;25.89;100;97881.11;;;;
2021/06/22 06:48:25;;;;;;;13.4;8.7;;;;;;;26.25;100;97892.97;;;;
2021/06/22 06:58:23;;;;;;;13.2;8.9;;;;;;;26.35;100;97897.48;;;;
2021/06/22 07:08:24;;;;;;;13.4;7.4;;;;;;;27.1;100;97904.05;;;;
2021/06/22 07:18:29;;;;;;;12.2;7;;;;;;;27.47;100;97920.09;;;;
2021/06/22 07:28:26;;;;;;;8.4;7.2;;;;;;;27.96;100;97929.81;;;;
2021/06/22 07:38:27;;;;;;;13.2;7.4;;;;;;;28.35;100;97925.94;;;;
2021/06/22 07:48:28;;;;;;;11.5;6.9;;;;;;;28.92;93.9834;97930.5;;;;
2021/06/22 07:58:29;;;;;;;11.6;6.9;;;;;;;29.47;90.03027;97951.3;;;;
2021/06/22 08:08:31;;;;;;;9.8;7.1;;;;;;;30.47;87.60254;97970.8;;;;
2021/06/22 08:18:32;;;;;;;15.1;8.2;;;;;;;30.73;85.02637;97993.63;;;;
2021/06/22 08:28:33;;;;;;;13.8;7.1;;;;;;;29.63;89.53027;98024.58;;;;
2021/06/22 08:38:33;;;;;;;12.4;7.8;;;;;;;29.25;92.45703;98022.63;;;;
2021/06/22 08:48:35;;;;;;;14.1;8.1;;;;;;;28.28;97.91602;98039.78;;;;
2021/06/22 08:58:36;;;;;;;11.8;7.1;;;;;;;27.56;93.72656;98024.69;;;;
2021/06/22 09:08:37;;;;;;;11.1;6.4;;;;;;;27.41;94.66309;98032.53;;;;
2021/06/22 09:18:40;;;;;;;8.2;5.6;;;;;;;27.63;91.21777;98016.2;;;;
2021/06/22 09:28:39;;;;;;;14.6;5.5;;;;;;;28.74;90.04785;98001.66;;;;
2021/06/22 09:38:40;;;;;;;8.9;5.7;;;;;;;29.14;87.37207;97996.42;;;;
2021/06/22 09:48:41;;;;;;;10.6;5.2;;;;;;;29.04;85.80469;97987.22;;;;
2021/06/22 09:58:42;;;;;;;7.3;5.2;;;;;;;28.38;92.46875;98016.53;;;;
2021/06/22 10:08:43;;;;;;;9.2;4.7;;;;;;;28.88;87.33398;98026.16;;;;
2021/06/22 10:18:44;;;;;;;9.7;5;;;;;;;29.56;86.31348;98019.27;;;;
2021/06/22 10:28:46;;;;;;;8;4.7;;;;;;;29.53;90.12305;98020.95;;;;
2021/06/22 10:38:47;;;;;;;10.7;6;;;;;;;30.14;83.82324;98003.75;;;;
2021/06/22 10:48:48;;;;;;;8.3;5.1;;;;;;;30.39;84.05859;98009.19;;;;
2021/06/22 11:08:52;;;;;;;7.8;6.2;;;;;;;30.85;82.97363;98001.13;;;;
2021/06/22 11:19:13;;;;;;;12.9;5.2;;;;;;;30.69;85.46777;97988.2;;;;
2021/06/22 11:28:54;;;;;;;13.6;5;;;;;;;30.33;83.75098;98018.56;;;;
2021/06/22 11:38:55;;;;;;;11.9;6.5;;;;;;;30.14;83.21094;98014.09;;;;
2021/06/22 11:48:57;;;;;;;9.8;5.2;;;;;;;30.24;82.46387;97990.68;;;;
2021/06/22 11:58:58;;;;;;;8.8;5.1;;;;;;;30.17;78.11426;97979.82;;;;
2021/06/22 12:08:59;;;;;;;7.4;4.1;;;;;;;30.52;75.56738;97975.75;;;;
2021/06/22 12:19:01;;;;;;;10.6;5.2;;;;;;;30.37;75.11719;97961.57;;;;
2021/06/22 12:29:02;;;;;;;10.3;5.6;;;;;;;30.84;73.20898;97955.81;;;;
2021/06/22 12:39:06;;;;;;;8;5.3;;;;;;;30.73;73.32031;97961.02;;;;
2021/06/22 12:49:06;;;;;;;14.9;4.6;;;;;;;30.96;77.44629;97943.03;;;;
2021/06/22 12:59:06;;;;;;;10.7;5.4;;;;;;;31.57;73.94043;97939.33;;;;
2021/06/22 13:09:07;;;;;;;11;6.7;;;;;;;31.84;74.62305;97941.33;;;;
2021/06/22 13:19:09;;;;;;;15.8;5.9;;;;;;;32.4;74.65625;97951.97;;;;
2021/06/22 13:29:11;;;;;;;10.8;5.9;;;;;;;32.25;69.69531;97939.91;;;;
2021/06/22 13:39:13;;;;;;;9.3;5.4;;;;;;;33.07;69.22363;97931.25;;;;
2021/06/22 13:49:13;;;;;;;8.8;5.1;;;;;;;32.98;68.11621;97908.95;;;;
2021/06/22 13:59:16;;;;;;;7.1;4.7;;;;;;;34.02;65.25391;97906.8;;;;
2021/06/22 14:09:17;;;;;;;11.3;5.6;;;;;;;34.52;63.62793;97916.09;;;;
2021/06/22 14:19:19;;;;;;;9.7;6.3;;;;;;;35.09;60.74805;97913.67;;;;
2021/06/22 14:29:20;;;;;;;8.4;4.6;;;;;;;34.51;60.70703;97914.53;;;;
2021/06/22 14:39:23;;;;;;;10.4;6.7;;;;;;;34.62;61.34473;97931.55;;;;
2021/06/22 14:49:24;;;;;;;10.2;6.4;;;;;;;34.29;61.09668;97936.56;;;;
2021/06/22 14:59:26;;;;;;;8.4;5.5;;;;;;;34.44;61.57227;97937.31;;;;
2021/06/22 15:09:28;;;;;;;8.9;5.9;;;;;;;33.66;62.25488;97926.72;;;;
2021/06/22 15:19:30;;;;;;;11.6;7.1;;;;;;;34.48;61.2168;97925.92;;;;
2021/06/22 15:29:32;;;;;;;10.6;7;;;;;;;33.69;63.07031;97925.76;;;;
2021/06/22 15:39:33;;;;;;;12.3;6.1;;;;;;;34.57;60.00879;97915.39;;;;
2021/06/22 15:49:35;;;;;;;10.7;6;;;;;;;33.02;64.50488;97901.95;;;;
2021/06/22 15:59:37;;;;;;;10;6.6;;;;;;;35.16;60.30176;97879.64;;;;
2021/06/22 16:09:38;;;;;;;11.6;5.8;;;;;;;34.12;60.58496;97927.86;;;;
2021/06/22 16:19:40;;;;;;;10;5.6;;;;;;;32.29;64.66309;97946.88;;;;
2021/06/22 16:29:42;;;;;;;7.2;5.6;;;;;;;31.23;72.82031;97914.5;;;;
2021/06/22 16:39:43;;;;;;;15.7;6.6;;;;;;;30.22;77.13379;97938.33;;;;
2021/06/22 16:49:46;;;;;;;6.9;5.1;;;;;;;29.52;80.22754;97938.07;;;;
2021/06/22 16:59:46;;;;;;;27.9;10.2;;;;;;;28.64;85.07422;98045.07;;;;
2021/06/22 17:09:47;;;;;;;17.9;6.8;;;;;;;24.83;100;98120.88;;;;
2021/06/22 17:19:47;;;;;;;11.7;6.3;;;;;;;20.43;100;98173.97;;;;
2021/06/22 17:29:48;;;;;;;9.1;4.8;;;;;;;19.62;100;98215.11;;;;
2021/06/22 17:39:47;;;;;;;11.2;7.4;;;;;;;19.4;100;98101.25;;;;
2021/06/22 17:49:50;;;;;;;11.1;6.4;;;;;;;19.67;100;98116.34;;;;
2021/06/22 17:59:47;;;;;;;9.2;6.1;;;;;;;20.31;100;98084.73;;;;
2021/06/22 18:09:47;;;;;;;12.2;7.6;;;;;;;20.52;100;98105.95;;;;
2021/06/22 18:19:47;;;;;;;9.5;7.1;;;;;;;20.66;100;98155.31;;;;
2021/06/22 18:29:47;;;;;;;16;9.5;;;;;;;20.96;100;98161.3;;;;
2021/06/22 18:39:46;;;;;;;11.7;7.3;;;;;;;20.97;100;98162.88;;;;
2021/06/22 18:49:46;;;;;;;10.4;6.6;;;;;;;20.96;100;98177.73;;;;
2021/06/22 18:59:46;;;;;;;12.6;7.6;;;;;;;20.89;100;98168.73;;;;
2021/06/22 19:09:46;;;;;;;9.1;7.7;;;;;;;21.01;100;98214.95;;;;
2021/06/22 19:19:46;;;;;;;11.4;9;;;;;;;20.63;100;98216.33;;;;
2021/06/22 19:29:46;;;;;;;11;8.3;;;;;;;20.65;100;98238.65;;;;
2021/06/22 19:39:46;;;;;;;10.1;6.8;;;;;;;20.58;100;98246.82;;;;
2021/06/22 19:49:46;;;;;;;9.3;5.3;;;;;;;20.33;100;98257.59;;;;
2021/06/22 19:59:46;;;;;;;7.6;5.8;;;;;;;20.37;100;98260.36;;;;
2021/06/22 20:09:45;;;;;;;6.9;5;;;;;;;20.22;100;98234;;;;
2021/06/22 20:19:45;;;;;;;8.3;5.3;;;;;;;20.24;100;98224.23;;;;
2021/06/22 20:29:47;;;;;;;10.4;6.6;;;;;;;20.11;100;98212.02;;;;
2021/06/22 20:39:45;;;;;;;9.7;6;;;;;;;20.04;100;98234.64;;;;
2021/06/22 20:49:45;;;;;;;10.9;6.2;;;;;;;20.14;100;98254.25;;;;
2021/06/22 20:59:44;;;;;;;8.8;6.1;;;;;;;20.1;100;98265.96;;;;
2021/06/22 21:09:44;;;;;;;8;5.5;;;;;;;20;100;98294.01;;;;
2021/06/22 21:19:44;;;;;;;9.7;7.4;;;;;;;20.11;100;98296.84;;;;
2021/06/22 21:29:44;;;;;;;9.8;7.4;;;;;;;20.12;100;98297.64;;;;
2021/06/22 21:39:44;;;;;;;9.1;6.7;;;;;;;20.06;100;98300.7;;;;
2021/06/22 21:49:43;;;;;;;9;7.6;;;;;;;20.08;100;98309.34;;;;
2021/06/22 21:59:43;;;;;;;15.8;11;;;;;;;20.2;100;98321.94;;;;
2021/06/22 22:09:43;;;;;;;15.2;11.6;;;;;;;20.23;100;98340.37;;;;
2021/06/22 22:19:43;;;;;;;16.9;11.3;;;;;;;20.17;100;98363.74;;;;
2021/06/22 22:29:43;;;;;;;19.5;15.5;;;;;;;20.17;100;98355.53;;;;
2021/06/22 22:39:43;;;;;;;21;17;;;;;;;20.21;100;98352.83;;;;
2021/06/22 22:49:43;;;;;;;20.4;14.8;;;;;;;20.22;100;98349.73;;;;
2021/06/22 22:59:42;;;;;;;21.8;17;;;;;;;20.18;100;98359.85;;;;
2021/06/22 23:09:42;;;;;;;20.9;18.7;;;;;;;20.05;100;98345.66;;;;
2021/06/22 23:19:42;;;;;;;22.4;18.4;;;;;;;20.02;100;98353.83;;;;
2021/06/22 23:29:42;;;;;;;28.4;18.3;;;;;;;19.94;100;98377.59;;;;
2021/06/22 23:39:41;;;;;;;23.4;20;;;;;;;19.86;100;98399.75;;;;
2021/06/22 23:49:41;;;;;;;25.2;22.2;;;;;;;19.96;100;98388.93;;;;
2021/06/22 23:59:41;;;;;;;23.1;18.5;;;;;;;19.97;100;98386.98;;;;
